sensor_id;sensor_type;location;lat;lon;timestamp;pressure;altitude;pressure_sealevel;temperature;humidity
44751;BME280;30477;48.224;11.470;2023-03-14T00:01:44;94596.06;;;11.22;64.25
44751;BME280;30477;48.224;11.470;2023-03-14T00:04:10;94576.94;;;11.23;63.94
44751;BME280;30477;48.224;11.470;2023-03-14T00:06:35;94572.06;;;11.13;64.42
44751;BME280;30477;48.224;11.470;2023-03-14T00:09:00;94564.38;;;11.05;64.71
44751;BME280;30477;48.224;11.470;2023-03-14T00:11:26;94570.66;;;11.11;64.77
44751;BME280;30477;48.224;11.470;2023-03-14T00:13:52;94570.91;;;11.16;64.88
44751;BME280;30477;48.224;11.470;2023-03-14T00:16:18;94575.69;;;11.19;65.10
44751;BME280;30477;48.224;11.470;2023-03-14T00:18:44;94578.91;;;11.21;65.00
44751;BME280;30477;48.224;11.470;2023-03-14T00:21:10;94592.50;;;11.23;65.10
44751;BME280;30477;48.224;11.470;2023-03-14T00:23:36;94594.09;;;11.24;65.13
44751;BME280;30477;48.224;11.470;2023-03-14T00:26:11;94586.69;;;11.21;65.26
44751;BME280;30477;48.224;11.470;2023-03-14T00:28:37;94582.25;;;11.15;65.23
44751;BME280;30477;48.224;11.470;2023-03-14T00:31:04;94578.28;;;11.19;65.20
44751;BME280;30477;48.224;11.470;2023-03-14T00:33:30;94562.75;;;11.19;65.26
44751;BME280;30477;48.224;11.470;2023-03-14T00:36:01;94548.94;;;11.12;65.45
44751;BME280;30477;48.224;11.470;2023-03-14T00:38:27;94553.41;;;11.03;65.77
44751;BME280;30477;48.224;11.470;2023-03-14T00:40:53;94564.03;;;10.93;66.13
44751;BME280;30477;48.224;11.470;2023-03-14T00:43:20;94565.09;;;10.84;66.47
44751;BME280;30477;48.224;11.470;2023-03-14T00:45:50;94572.31;;;10.74;66.86
44751;BME280;30477;48.224;11.470;2023-03-14T00:48:18;94577.31;;;10.61;67.26
44751;BME280;30477;48.224;11.470;2023-03-14T00:50:43;94597.22;;;10.75;67.58
44751;BME280;30477;48.224;11.470;2023-03-14T00:53:09;94596.00;;;10.86;67.66
44751;BME280;30477;48.224;11.470;2023-03-14T00:55:42;94594.22;;;11.01;67.55
44751;BME280;30477;48.224;11.470;2023-03-14T00:58:09;94595.91;;;11.09;67.22
44751;BME280;30477;48.224;11.470;2023-03-14T01:00:35;94597.97;;;11.13;67.07
44751;BME280;30477;48.224;11.470;2023-03-14T01:03:01;94603.66;;;10.94;67.02
44751;BME280;30477;48.224;11.470;2023-03-14T01:05:27;94614.28;;;10.84;67.45
44751;BME280;30477;48.224;11.470;2023-03-14T01:07:52;94612.59;;;10.91;67.66
44751;BME280;30477;48.224;11.470;2023-03-14T01:10:18;94605.09;;;10.82;67.87
44751;BME280;30477;48.224;11.470;2023-03-14T01:12:43;94614.44;;;10.68;68.55
44751;BME280;30477;48.224;11.470;2023-03-14T01:15:09;94615.25;;;10.83;69.36
44751;BME280;30477;48.224;11.470;2023-03-14T01:17:35;94612.56;;;10.76;69.06
44751;BME280;30477;48.224;11.470;2023-03-14T01:20:00;94619.97;;;10.65;69.52
44751;BME280;30477;48.224;11.470;2023-03-14T01:22:26;94618.94;;;10.51;69.98
44751;BME280;30477;48.224;11.470;2023-03-14T01:24:51;94625.81;;;10.44;70.39
44751;BME280;30477;48.224;11.470;2023-03-14T01:27:17;94627.63;;;10.35;70.72
44751;BME280;30477;48.224;11.470;2023-03-14T01:29:42;94629.28;;;10.28;71.14
44751;BME280;30477;48.224;11.470;2023-03-14T01:32:07;94634.56;;;10.11;71.42
44751;BME280;30477;48.224;11.470;2023-03-14T01:34:33;94632.88;;;10.04;71.96
44751;BME280;30477;48.224;11.470;2023-03-14T01:36:58;94631.81;;;10.13;72.15
44751;BME280;30477;48.224;11.470;2023-03-14T01:39:24;94632.72;;;9.97;72.42
44751;BME280;30477;48.224;11.470;2023-03-14T01:41:49;94638.72;;;9.98;72.98
44751;BME280;30477;48.224;11.470;2023-03-14T01:44:14;94652.78;;;9.95;73.26
44751;BME280;30477;48.224;11.470;2023-03-14T01:46:44;94641.13;;;9.99;73.39
44751;BME280;30477;48.224;11.470;2023-03-14T01:51:52;94648.81;;;10.07;73.95
44751;BME280;30477;48.224;11.470;2023-03-14T01:54:25;94654.41;;;9.96;73.68
44751;BME280;30477;48.224;11.470;2023-03-14T01:57:28;94654.91;;;9.91;74.03
44751;BME280;30477;48.224;11.470;2023-03-14T02:00:03;94642.38;;;10.03;74.41
44751;BME280;30477;48.224;11.470;2023-03-14T02:02:31;94651.41;;;10.07;74.22
44751;BME280;30477;48.224;11.470;2023-03-14T02:04:57;94640.28;;;10.07;74.37
44751;BME280;30477;48.224;11.470;2023-03-14T02:07:33;94626.53;;;10.06;74.25
44751;BME280;30477;48.224;11.470;2023-03-14T02:10:02;94629.28;;;9.82;74.08
44751;BME280;30477;48.224;11.470;2023-03-14T02:12:28;94621.28;;;9.68;74.61
44751;BME280;30477;48.224;11.470;2023-03-14T02:14:53;94617.97;;;9.51;74.84
44751;BME280;30477;48.224;11.470;2023-03-14T02:17:19;94610.63;;;9.63;75.25
44751;BME280;30477;48.224;11.470;2023-03-14T02:22:17;94573.22;;;9.59;75.26
44751;BME280;30477;48.224;11.470;2023-03-14T02:24:51;94548.19;;;9.60;75.12
44751;BME280;30477;48.224;11.470;2023-03-14T02:27:19;94533.16;;;9.63;75.04
44751;BME280;30477;48.224;11.470;2023-03-14T02:29:55;94520.88;;;9.65;74.70
44751;BME280;30477;48.224;11.470;2023-03-14T02:32:24;94514.38;;;9.69;74.21
44751;BME280;30477;48.224;11.470;2023-03-14T02:34:53;94490.78;;;9.72;74.10
44751;BME280;30477;48.224;11.470;2023-03-14T02:37:21;94469.13;;;9.73;73.96
44751;BME280;30477;48.224;11.470;2023-03-14T02:39:48;94458.81;;;9.73;73.71
44751;BME280;30477;48.224;11.470;2023-03-14T02:42:14;94459.78;;;9.72;73.10
44751;BME280;30477;48.224;11.470;2023-03-14T02:45:28;94454.16;;;9.69;73.09
44751;BME280;30477;48.224;11.470;2023-03-14T02:47:50;94443.81;;;9.69;72.91
44751;BME280;30477;48.224;11.470;2023-03-14T02:50:21;94460.75;;;9.71;73.07
44751;BME280;30477;48.224;11.470;2023-03-14T02:52:48;94456.38;;;9.72;73.09
44751;BME280;30477;48.224;11.470;2023-03-14T02:55:14;94457.84;;;9.74;73.20
44751;BME280;30477;48.224;11.470;2023-03-14T02:57:40;94470.13;;;9.72;72.93
44751;BME280;30477;48.224;11.470;2023-03-14T03:00:05;94472.06;;;9.70;73.04
44751;BME280;30477;48.224;11.470;2023-03-14T03:02:31;94475.63;;;9.69;72.95
44751;BME280;30477;48.224;11.470;2023-03-14T03:04:57;94477.88;;;9.72;73.04
44751;BME280;30477;48.224;11.470;2023-03-14T03:07:23;94476.25;;;9.71;72.86
44751;BME280;30477;48.224;11.470;2023-03-14T03:09:48;94466.28;;;9.68;72.92
44751;BME280;30477;48.224;11.470;2023-03-14T03:12:13;94475.47;;;9.71;72.59
44751;BME280;30477;48.224;11.470;2023-03-14T03:14:39;94473.22;;;9.68;72.09
44751;BME280;30477;48.224;11.470;2023-03-14T03:17:04;94480.69;;;9.63;71.96
44751;BME280;30477;48.224;11.470;2023-03-14T03:19:31;94485.75;;;9.56;72.23
44751;BME280;30477;48.224;11.470;2023-03-14T03:21:57;94483.78;;;9.58;72.00
44751;BME280;30477;48.224;11.470;2023-03-14T03:24:23;94468.63;;;9.55;71.73
44751;BME280;30477;48.224;11.470;2023-03-14T03:26:49;94469.66;;;9.46;72.03
44751;BME280;30477;48.224;11.470;2023-03-14T03:29:15;94469.31;;;9.49;71.87
44751;BME280;30477;48.224;11.470;2023-03-14T03:31:40;94470.94;;;9.50;71.81
44751;BME280;30477;48.224;11.470;2023-03-14T03:34:06;94466.03;;;9.55;71.77
44751;BME280;30477;48.224;11.470;2023-03-14T03:36:31;94463.94;;;9.59;71.72
44751;BME280;30477;48.224;11.470;2023-03-14T03:38:56;94458.91;;;9.57;71.46
44751;BME280;30477;48.224;11.470;2023-03-14T03:41:22;94456.00;;;9.60;71.46
44751;BME280;30477;48.224;11.470;2023-03-14T03:43:47;94453.13;;;9.55;71.10
44751;BME280;30477;48.224;11.470;2023-03-14T03:46:13;94443.16;;;9.52;71.03
44751;BME280;30477;48.224;11.470;2023-03-14T03:48:38;94451.59;;;9.46;71.12
44751;BME280;30477;48.224;11.470;2023-03-14T03:51:04;94454.50;;;9.43;71.07
44751;BME280;30477;48.224;11.470;2023-03-14T03:53:29;94463.25;;;9.42;70.83
44751;BME280;30477;48.224;11.470;2023-03-14T03:55:55;94445.22;;;9.33;70.65
44751;BME280;30477;48.224;11.470;2023-03-14T03:58:20;94454.88;;;9.40;70.52
44751;BME280;30477;48.224;11.470;2023-03-14T04:00:45;94445.78;;;9.44;70.62
44751;BME280;30477;48.224;11.470;2023-03-14T04:03:11;94449.34;;;9.43;70.25
44751;BME280;30477;48.224;11.470;2023-03-14T04:05:36;94438.84;;;9.44;70.14
44751;BME280;30477;48.224;11.470;2023-03-14T04:08:02;94435.47;;;9.44;69.92
44751;BME280;30477;48.224;11.470;2023-03-14T04:10:28;94444.91;;;9.37;69.54
44751;BME280;30477;48.224;11.470;2023-03-14T04:12:53;94436.56;;;9.26;69.29
44751;BME280;30477;48.224;11.470;2023-03-14T04:15:19;94445.00;;;9.20;69.48
44751;BME280;30477;48.224;11.470;2023-03-14T04:17:44;94425.59;;;9.24;69.37
44751;BME280;30477;48.224;11.470;2023-03-14T04:20:10;94437.56;;;9.17;69.25
44751;BME280;30477;48.224;11.470;2023-03-14T04:22:37;94434.66;;;9.20;68.98
44751;BME280;30477;48.224;11.470;2023-03-14T04:25:02;94427.19;;;9.25;68.83
44751;BME280;30477;48.224;11.470;2023-03-14T04:27:28;94427.19;;;9.25;68.69
44751;BME280;30477;48.224;11.470;2023-03-14T04:29:54;94436.44;;;9.20;68.39
44751;BME280;30477;48.224;11.470;2023-03-14T04:32:19;94433.06;;;9.19;68.67
44751;BME280;30477;48.224;11.470;2023-03-14T04:34:45;94432.47;;;9.09;68.41
44751;BME280;30477;48.224;11.470;2023-03-14T04:37:10;94422.13;;;9.09;68.56
44751;BME280;30477;48.224;11.470;2023-03-14T04:39:36;94423.13;;;9.08;68.51
44751;BME280;30477;48.224;11.470;2023-03-14T04:42:01;94428.56;;;9.13;68.44
44751;BME280;30477;48.224;11.470;2023-03-14T04:44:26;94428.41;;;9.14;68.42
44751;BME280;30477;48.224;11.470;2023-03-14T04:46:52;94421.81;;;9.12;68.69
44751;BME280;30477;48.224;11.470;2023-03-14T04:49:17;94416.97;;;9.09;68.19
44751;BME280;30477;48.224;11.470;2023-03-14T04:51:42;94409.66;;;8.98;68.39
44751;BME280;30477;48.224;11.470;2023-03-14T04:54:08;94403.00;;;9.03;68.38
44751;BME280;30477;48.224;11.470;2023-03-14T04:56:33;94398.84;;;8.94;68.21
44751;BME280;30477;48.224;11.470;2023-03-14T04:58:59;94388.09;;;8.90;68.29
44751;BME280;30477;48.224;11.470;2023-03-14T05:01:24;94372.78;;;8.89;68.22
44751;BME280;30477;48.224;11.470;2023-03-14T05:03:49;94370.34;;;8.87;68.43
44751;BME280;30477;48.224;11.470;2023-03-14T05:06:15;94376.44;;;8.94;68.42
44751;BME280;30477;48.224;11.470;2023-03-14T05:08:40;94377.41;;;8.93;68.25
44751;BME280;30477;48.224;11.470;2023-03-14T05:11:06;94391.97;;;8.86;68.35
44751;BME280;30477;48.224;11.470;2023-03-14T05:13:32;94387.50;;;8.80;68.47
44751;BME280;30477;48.224;11.470;2023-03-14T05:16:08;94382.00;;;8.83;68.40
44751;BME280;30477;48.224;11.470;2023-03-14T05:18:34;94395.88;;;8.82;68.37
44751;BME280;30477;48.224;11.470;2023-03-14T05:20:59;94384.56;;;8.83;68.43
44751;BME280;30477;48.224;11.470;2023-03-14T05:23:25;94380.03;;;8.85;68.69
44751;BME280;30477;48.224;11.470;2023-03-14T05:25:50;94382.97;;;8.82;68.23
44751;BME280;30477;48.224;11.470;2023-03-14T05:28:15;94381.06;;;8.76;68.74
44751;BME280;30477;48.224;11.470;2023-03-14T05:30:41;94375.97;;;8.68;68.65
44751;BME280;30477;48.224;11.470;2023-03-14T05:33:06;94367.44;;;8.67;68.86
44751;BME280;30477;48.224;11.470;2023-03-14T05:35:31;94380.47;;;8.66;69.22
44751;BME280;30477;48.224;11.470;2023-03-14T05:37:57;94377.75;;;8.67;69.34
44751;BME280;30477;48.224;11.470;2023-03-14T05:40:22;94372.41;;;8.69;69.24
44751;BME280;30477;48.224;11.470;2023-03-14T05:42:48;94370.50;;;8.63;69.21
44751;BME280;30477;48.224;11.470;2023-03-14T05:45:13;94371.94;;;8.65;69.23
44751;BME280;30477;48.224;11.470;2023-03-14T05:47:38;94369.53;;;8.64;69.44
44751;BME280;30477;48.224;11.470;2023-03-14T05:50:04;94375.00;;;8.61;69.20
44751;BME280;30477;48.224;11.470;2023-03-14T05:52:29;94365.28;;;8.71;69.19
44751;BME280;30477;48.224;11.470;2023-03-14T05:54:55;94370.16;;;8.66;69.17
44751;BME280;30477;48.224;11.470;2023-03-14T05:57:20;94359.34;;;8.70;69.25
44751;BME280;30477;48.224;11.470;2023-03-14T05:59:45;94366.28;;;8.70;69.52
44751;BME280;30477;48.224;11.470;2023-03-14T06:02:11;94354.94;;;8.79;69.30
44751;BME280;30477;48.224;11.470;2023-03-14T06:04:36;94345.53;;;8.86;69.27
44751;BME280;30477;48.224;11.470;2023-03-14T06:07:01;94352.28;;;8.87;69.16
44751;BME280;30477;48.224;11.470;2023-03-14T06:09:28;94351.59;;;8.93;68.84
44751;BME280;30477;48.224;11.470;2023-03-14T06:11:53;94358.84;;;8.98;68.78
44751;BME280;30477;48.224;11.470;2023-03-14T06:14:19;94357.88;;;8.99;68.56
44751;BME280;30477;48.224;11.470;2023-03-14T06:16:44;94350.28;;;8.98;68.54
44751;BME280;30477;48.224;11.470;2023-03-14T06:19:10;94355.28;;;8.99;68.52
44751;BME280;30477;48.224;11.470;2023-03-14T06:21:35;94354.56;;;8.90;68.60
44751;BME280;30477;48.224;11.470;2023-03-14T06:24:00;94351.97;;;8.90;68.51
44751;BME280;30477;48.224;11.470;2023-03-14T06:26:26;94353.66;;;8.98;68.67
44751;BME280;30477;48.224;11.470;2023-03-14T06:28:51;94345.88;;;9.06;68.65
44751;BME280;30477;48.224;11.470;2023-03-14T06:31:18;94343.13;;;9.08;68.37
44751;BME280;30477;48.224;11.470;2023-03-14T06:33:44;94329.88;;;9.11;68.40
44751;BME280;30477;48.224;11.470;2023-03-14T06:36:09;94327.91;;;9.13;68.20
44751;BME280;30477;48.224;11.470;2023-03-14T06:38:35;94318.56;;;9.12;67.93
44751;BME280;30477;48.224;11.470;2023-03-14T06:41:04;94323.75;;;9.12;68.24
44751;BME280;30477;48.224;11.470;2023-03-14T06:43:30;94309.91;;;9.05;67.93
44751;BME280;30477;48.224;11.470;2023-03-14T06:45:56;94316.84;;;9.04;68.03
44751;BME280;30477;48.224;11.470;2023-03-14T06:48:21;94306.19;;;9.07;68.09
44751;BME280;30477;48.224;11.470;2023-03-14T06:50:48;94302.47;;;9.10;68.02
44751;BME280;30477;48.224;11.470;2023-03-14T06:53:13;94320.16;;;9.13;68.13
44751;BME280;30477;48.224;11.470;2023-03-14T06:55:38;94319.84;;;9.16;67.92
44751;BME280;30477;48.224;11.470;2023-03-14T06:58:04;94334.34;;;9.17;67.60
44751;BME280;30477;48.224;11.470;2023-03-14T07:00:29;94338.88;;;9.15;67.89
44751;BME280;30477;48.224;11.470;2023-03-14T07:02:55;94338.88;;;9.15;67.54
44751;BME280;30477;48.224;11.470;2023-03-14T07:05:20;94345.28;;;9.19;67.70
44751;BME280;30477;48.224;11.470;2023-03-14T07:07:46;94353.31;;;9.24;67.40
44751;BME280;30477;48.224;11.470;2023-03-14T07:10:11;94354.59;;;9.28;67.35
44751;BME280;30477;48.224;11.470;2023-03-14T07:12:36;94365.53;;;9.30;67.27
44751;BME280;30477;48.224;11.470;2023-03-14T07:15:02;94366.50;;;9.29;67.25
44751;BME280;30477;48.224;11.470;2023-03-14T07:17:27;94367.66;;;9.27;66.92
44751;BME280;30477;48.224;11.470;2023-03-14T07:19:53;94359.44;;;9.23;66.77
44751;BME280;30477;48.224;11.470;2023-03-14T07:22:18;94365.25;;;9.25;66.98
44751;BME280;30477;48.224;11.470;2023-03-14T07:24:43;94362.97;;;9.30;66.84
44751;BME280;30477;48.224;11.470;2023-03-14T07:27:09;94355.66;;;9.34;66.75
44751;BME280;30477;48.224;11.470;2023-03-14T07:29:34;94356.13;;;9.38;66.45
44751;BME280;30477;48.224;11.470;2023-03-14T07:31:59;94354.53;;;9.37;66.13
44751;BME280;30477;48.224;11.470;2023-03-14T07:34:25;94359.06;;;9.34;66.13
44751;BME280;30477;48.224;11.470;2023-03-14T07:36:50;94357.09;;;9.37;66.13
44751;BME280;30477;48.224;11.470;2023-03-14T07:39:15;94358.34;;;9.41;65.94
44751;BME280;30477;48.224;11.470;2023-03-14T07:41:42;94352.03;;;9.43;66.01
44751;BME280;30477;48.224;11.470;2023-03-14T07:44:08;94345.72;;;9.46;65.91
44751;BME280;30477;48.224;11.470;2023-03-14T07:46:33;94346.69;;;9.45;65.61
44751;BME280;30477;48.224;11.470;2023-03-14T07:48:58;94341.34;;;9.46;65.78
44751;BME280;30477;48.224;11.470;2023-03-14T07:51:24;94344.38;;;9.50;65.46
44751;BME280;30477;48.224;11.470;2023-03-14T07:53:49;94345.97;;;9.51;65.75
44751;BME280;30477;48.224;11.470;2023-03-14T07:56:14;94343.59;;;9.49;65.46
44751;BME280;30477;48.224;11.470;2023-03-14T07:58:40;94345.66;;;9.54;65.44
44751;BME280;30477;48.224;11.470;2023-03-14T08:01:05;94339.50;;;9.55;65.05
44751;BME280;30477;48.224;11.470;2023-03-14T08:03:31;94351.44;;;9.56;64.95
44751;BME280;30477;48.224;11.470;2023-03-14T08:05:56;94356.59;;;9.56;65.09
44751;BME280;30477;48.224;11.470;2023-03-14T08:08:21;94351.69;;;9.61;64.57
44751;BME280;30477;48.224;11.470;2023-03-14T08:10:47;94356.97;;;9.68;64.80
44751;BME280;30477;48.224;11.470;2023-03-14T08:13:12;94360.47;;;9.75;64.33
44751;BME280;30477;48.224;11.470;2023-03-14T08:15:38;94356.09;;;9.75;64.09
44751;BME280;30477;48.224;11.470;2023-03-14T08:18:04;94353.41;;;9.84;64.13
44751;BME280;30477;48.224;11.470;2023-03-14T08:20:30;94342.00;;;9.93;63.94
44751;BME280;30477;48.224;11.470;2023-03-14T08:22:57;94353.44;;;9.99;63.76
44751;BME280;30477;48.224;11.470;2023-03-14T08:25:23;94359.47;;;9.91;63.21
44751;BME280;30477;48.224;11.470;2023-03-14T08:27:48;94359.47;;;9.91;63.44
44751;BME280;30477;48.224;11.470;2023-03-14T08:32:41;94359.84;;;9.88;63.31
44751;BME280;30477;48.224;11.470;2023-03-14T08:35:08;94357.81;;;9.98;63.66
44751;BME280;30477;48.224;11.470;2023-03-14T08:37:34;94361.25;;;10.05;63.28
44751;BME280;30477;48.224;11.470;2023-03-14T08:40:01;94365.63;;;10.05;63.04
44751;BME280;30477;48.224;11.470;2023-03-14T08:42:31;94364.47;;;10.07;63.19
44751;BME280;30477;48.224;11.470;2023-03-14T08:44:56;94366.34;;;10.13;63.21
44751;BME280;30477;48.224;11.470;2023-03-14T08:47:22;94368.94;;;10.13;63.01
44751;BME280;30477;48.224;11.470;2023-03-14T08:49:47;94382.03;;;10.12;62.91
44751;BME280;30477;48.224;11.470;2023-03-14T08:52:12;94378.31;;;10.14;62.77
44751;BME280;30477;48.224;11.470;2023-03-14T08:54:38;94378.09;;;10.16;62.84
44751;BME280;30477;48.224;11.470;2023-03-14T08:57:03;94380.97;;;10.21;62.72
44751;BME280;30477;48.224;11.470;2023-03-14T08:59:28;94382.66;;;10.29;62.72
44751;BME280;30477;48.224;11.470;2023-03-14T09:01:54;94376.78;;;10.35;62.62
44751;BME280;30477;48.224;11.470;2023-03-14T09:04:20;94387.94;;;10.35;62.35
44751;BME280;30477;48.224;11.470;2023-03-14T09:06:45;94376.78;;;10.35;62.08
44751;BME280;30477;48.224;11.470;2023-03-14T09:09:11;94381.63;;;10.38;61.70
44751;BME280;30477;48.224;11.470;2023-03-14T09:14:07;94379.56;;;10.48;61.70
44751;BME280;30477;48.224;11.470;2023-03-14T09:16:33;94379.44;;;10.56;61.46
44751;BME280;30477;48.224;11.470;2023-03-14T09:18:59;94381.41;;;10.54;61.15
44751;BME280;30477;48.224;11.470;2023-03-14T09:21:25;94375.25;;;10.55;60.84
44751;BME280;30477;48.224;11.470;2023-03-14T09:23:51;94380.59;;;10.54;60.47
44751;BME280;30477;48.224;11.470;2023-03-14T09:26:16;94374.22;;;10.50;59.86
44751;BME280;30477;48.224;11.470;2023-03-14T09:28:42;94372.50;;;10.42;60.12
44751;BME280;30477;48.224;11.470;2023-03-14T09:31:08;94365.63;;;10.49;59.99
44751;BME280;30477;48.224;11.470;2023-03-14T09:33:34;94360.34;;;10.57;59.57
44751;BME280;30477;48.224;11.470;2023-03-14T09:36:00;94365.97;;;10.61;59.88
44751;BME280;30477;48.224;11.470;2023-03-14T09:38:26;94357.31;;;10.69;59.88
44751;BME280;30477;48.224;11.470;2023-03-14T09:40:53;94355.13;;;10.72;59.73
44751;BME280;30477;48.224;11.470;2023-03-14T09:43:19;94352.03;;;10.62;59.37
44751;BME280;30477;48.224;11.470;2023-03-14T09:45:47;94355.16;;;10.57;59.39
44751;BME280;30477;48.224;11.470;2023-03-14T09:48:17;94357.22;;;10.62;59.15
44751;BME280;30477;48.224;11.470;2023-03-14T09:50:51;94364.06;;;10.70;59.24
44751;BME280;30477;48.224;11.470;2023-03-14T09:53:19;94352.38;;;10.74;58.74
44751;BME280;30477;48.224;11.470;2023-03-14T09:55:49;94355.34;;;10.71;58.81
44751;BME280;30477;48.224;11.470;2023-03-14T09:58:22;94359.34;;;10.73;58.42
44751;BME280;30477;48.224;11.470;2023-03-14T10:00:49;94350.16;;;10.71;58.18
44751;BME280;30477;48.224;11.470;2023-03-14T10:03:26;94354.09;;;10.67;58.29
44751;BME280;30477;48.224;11.470;2023-03-14T10:05:52;94348.53;;;10.70;58.19
44751;BME280;30477;48.224;11.470;2023-03-14T10:08:18;94348.50;;;10.85;58.15
44751;BME280;30477;48.224;11.470;2023-03-14T10:10:44;94349.44;;;10.99;58.04
44751;BME280;30477;48.224;11.470;2023-03-14T10:15:35;94342.16;;;11.09;57.38
44751;BME280;30477;48.224;11.470;2023-03-14T10:18:03;94340.03;;;11.41;57.64
44751;BME280;30477;48.224;11.470;2023-03-14T10:20:33;94335.91;;;11.74;57.10
44751;BME280;30477;48.224;11.470;2023-03-14T10:23:24;94334.09;;;12.03;56.05
44751;BME280;30477;48.224;11.470;2023-03-14T10:26:08;94333.31;;;12.09;55.60
44751;BME280;30477;48.224;11.470;2023-03-14T10:28:39;94324.72;;;12.02;55.24
44751;BME280;30477;48.224;11.470;2023-03-14T10:31:06;94326.84;;;11.92;54.52
44751;BME280;30477;48.224;11.470;2023-03-14T10:33:34;94331.53;;;11.82;54.57
44751;BME280;30477;48.224;11.470;2023-03-14T10:36:21;94325.53;;;11.74;54.79
44751;BME280;30477;48.224;11.470;2023-03-14T10:38:48;94328.31;;;11.73;54.64
44751;BME280;30477;48.224;11.470;2023-03-14T10:41:25;94333.66;;;11.71;54.35
44751;BME280;30477;48.224;11.470;2023-03-14T10:43:55;94325.53;;;11.74;54.72
44751;BME280;30477;48.224;11.470;2023-03-14T10:46:23;94327.38;;;11.81;54.58
44751;BME280;30477;48.224;11.470;2023-03-14T10:48:51;94320.69;;;11.93;54.21
44751;BME280;30477;48.224;11.470;2023-03-14T10:53:54;94323.97;;;12.15;53.47
44751;BME280;30477;48.224;11.470;2023-03-14T10:56:22;94305.47;;;12.18;52.68
44751;BME280;30477;48.224;11.470;2023-03-14T10:58:50;94316.94;;;12.02;52.50
44751;BME280;30477;48.224;11.470;2023-03-14T11:01:27;94322.59;;;11.84;52.39
44751;BME280;30477;48.224;11.470;2023-03-14T11:06:59;94330.75;;;11.81;51.95
44751;BME280;30477;48.224;11.470;2023-03-14T11:29:38;94310.97;;;12.02;51.59
44751;BME280;30477;48.224;11.470;2023-03-14T11:32:23;94313.00;;;12.13;51.56
44751;BME280;30477;48.224;11.470;2023-03-14T11:34:54;94316.19;;;12.15;51.16
44751;BME280;30477;48.224;11.470;2023-03-14T11:37:40;94303.88;;;12.24;51.47
44751;BME280;30477;48.224;11.470;2023-03-14T11:40:27;94315.63;;;12.19;51.69
44751;BME280;30477;48.224;11.470;2023-03-14T11:43:11;94301.06;;;12.18;51.44
44751;BME280;30477;48.224;11.470;2023-03-14T11:45:41;94282.31;;;12.16;51.26
44751;BME280;30477;48.224;11.470;2023-03-14T11:48:16;94291.47;;;12.12;51.18
44751;BME280;30477;48.224;11.470;2023-03-14T11:50:47;94275.88;;;12.06;49.99
44751;BME280;30477;48.224;11.470;2023-03-14T11:53:22;94281.19;;;11.91;50.48
44751;BME280;30477;48.224;11.470;2023-03-14T11:55:51;94298.28;;;11.85;50.67
44751;BME280;30477;48.224;11.470;2023-03-14T11:58:27;94286.59;;;11.96;50.84
44751;BME280;30477;48.224;11.470;2023-03-14T12:00:55;94291.16;;;11.94;51.09
44751;BME280;30477;48.224;11.470;2023-03-14T12:06:02;94297.56;;;11.98;50.85
44751;BME280;30477;48.224;11.470;2023-03-14T12:11:33;94293.75;;;11.94;50.98
44751;BME280;30477;48.224;11.470;2023-03-14T12:14:00;94305.13;;;11.93;51.56
44751;BME280;30477;48.224;11.470;2023-03-14T12:16:35;94287.59;;;11.95;51.52
44751;BME280;30477;48.224;11.470;2023-03-14T12:24:36;94292.38;;;11.98;50.93
44751;BME280;30477;48.224;11.470;2023-03-14T12:27:04;94286.09;;;11.86;51.75
44751;BME280;30477;48.224;11.470;2023-03-14T12:29:30;94282.28;;;11.82;51.96
44751;BME280;30477;48.224;11.470;2023-03-14T12:32:09;94290.81;;;11.69;52.25
44751;BME280;30477;48.224;11.470;2023-03-14T12:34:45;94294.03;;;11.77;53.24
44751;BME280;30477;48.224;11.470;2023-03-14T12:40:04;94299.44;;;12.17;52.79
44751;BME280;30477;48.224;11.470;2023-03-14T12:42:45;94291.66;;;12.11;52.28
44751;BME280;30477;48.224;11.470;2023-03-14T12:47:52;94300.03;;;12.13;52.12
44751;BME280;30477;48.224;11.470;2023-03-14T12:50:31;94282.19;;;11.96;51.74
44751;BME280;30477;48.224;11.470;2023-03-14T12:55:33;94288.97;;;11.91;51.77
44751;BME280;30477;48.224;11.470;2023-03-14T12:58:08;94301.66;;;11.86;51.86
44751;BME280;30477;48.224;11.470;2023-03-14T13:00:41;94313.94;;;11.70;52.47
44751;BME280;30477;48.224;11.470;2023-03-14T13:03:19;94305.69;;;11.60;52.17
44751;BME280;30477;48.224;11.470;2023-03-14T13:06:00;94326.66;;;11.65;52.56
44751;BME280;30477;48.224;11.470;2023-03-14T13:08:41;94315.91;;;11.68;52.36
44751;BME280;30477;48.224;11.470;2023-03-14T13:11:10;94312.75;;;11.73;52.39
44751;BME280;30477;48.224;11.470;2023-03-14T13:13:42;94317.09;;;11.66;52.55
44751;BME280;30477;48.224;11.470;2023-03-14T13:16:15;94322.28;;;11.66;52.84
44751;BME280;30477;48.224;11.470;2023-03-14T13:19:09;94329.03;;;11.60;53.13
44751;BME280;30477;48.224;11.470;2023-03-14T13:21:37;94335.00;;;11.61;53.04
44751;BME280;30477;48.224;11.470;2023-03-14T13:24:05;94348.16;;;11.59;53.54
44751;BME280;30477;48.224;11.470;2023-03-14T13:26:39;94343.13;;;11.51;53.91
44751;BME280;30477;48.224;11.470;2023-03-14T13:29:09;94351.91;;;11.28;55.11
44751;BME280;30477;48.224;11.470;2023-03-14T13:31:35;94357.81;;;11.01;56.04
44751;BME280;30477;48.224;11.470;2023-03-14T13:34:02;94352.69;;;10.86;57.61
44751;BME280;30477;48.224;11.470;2023-03-14T13:36:29;94362.28;;;10.70;58.38
44751;BME280;30477;48.224;11.470;2023-03-14T13:38:59;94387.97;;;10.72;58.72
44751;BME280;30477;48.224;11.470;2023-03-14T13:41:27;94389.66;;;10.80;58.36
44751;BME280;30477;48.224;11.470;2023-03-14T13:44:06;94403.56;;;10.79;58.66
44751;BME280;30477;48.224;11.470;2023-03-14T13:46:34;94396.75;;;10.71;58.33
44751;BME280;30477;48.224;11.470;2023-03-14T13:49:05;94407.88;;;10.71;58.65
44751;BME280;30477;48.224;11.470;2023-03-14T13:51:32;94422.81;;;10.54;59.28
44751;BME280;30477;48.224;11.470;2023-03-14T13:53:58;94417.19;;;10.51;59.93
44751;BME280;30477;48.224;11.470;2023-03-14T13:56:28;94431.22;;;10.42;59.75